sensor_id;sensor_type;location;lat;lon;timestamp;temperature;humidity
2873;DHT22;1444;49.166;7.312;2023-06-22T00:02:02;23.10;99.90
2873;DHT22;1444;49.166;7.312;2023-06-22T00:04:28;23.20;99.90
2873;DHT22;1444;49.166;7.312;2023-06-22T00:06:55;23.30;99.90
2873;DHT22;1444;49.166;7.312;2023-06-22T00:09:22;23.50;99.90
2873;DHT22;1444;49.166;7.312;2023-06-22T00:11:48;23.50;99.90
2873;DHT22;1444;49.166;7.312;2023-06-22T00:14:15;23.60;99.90
2873;DHT22;1444;49.166;7.312;2023-06-22T00:16:42;23.70;99.90
2873;DHT22;1444;49.166;7.312;2023-06-22T00:19:10;23.70;99.90
2873;DHT22;1444;49.166;7.312;2023-06-22T00:21:37;23.80;99.90
2873;DHT22;1444;49.166;7.312;2023-06-22T00:24:05;23.50;99.90
2873;DHT22;1444;49.166;7.312;2023-06-22T00:26:32;23.40;99.90
2873;DHT22;1444;49.166;7.312;2023-06-22T00:28:59;23.30;99.90
2873;DHT22;1444;49.166;7.312;2023-06-22T00:31:26;23.30;99.90
2873;DHT22;1444;49.166;7.312;2023-06-22T00:33:52;23.40;99.90
2873;DHT22;1444;49.166;7.312;2023-06-22T00:36:20;23.40;99.90
2873;DHT22;1444;49.166;7.312;2023-06-22T00:38:50;23.50;99.90
2873;DHT22;1444;49.166;7.312;2023-06-22T00:41:17;23.40;99.90
2873;DHT22;1444;49.166;7.312;2023-06-22T00:43:43;23.50;99.90
2873;DHT22;1444;49.166;7.312;2023-06-22T00:46:10;23.50;99.90
2873;DHT22;1444;49.166;7.312;2023-06-22T00:48:38;23.50;99.90
2873;DHT22;1444;49.166;7.312;2023-06-22T00:51:07;23.50;99.90
2873;DHT22;1444;49.166;7.312;2023-06-22T00:53:35;23.50;99.90
2873;DHT22;1444;49.166;7.312;2023-06-22T00:56:04;23.50;99.90
2873;DHT22;1444;49.166;7.312;2023-06-22T00:58:31;23.50;99.90
2873;DHT22;1444;49.166;7.312;2023-06-22T01:00:58;23.50;99.90
2873;DHT22;1444;49.166;7.312;2023-06-22T01:03:25;23.50;99.90
2873;DHT22;1444;49.166;7.312;2023-06-22T01:05:54;23.60;99.90
2873;DHT22;1444;49.166;7.312;2023-06-22T01:08:31;23.50;99.90
2873;DHT22;1444;49.166;7.312;2023-06-22T01:11:05;23.50;99.90
2873;DHT22;1444;49.166;7.312;2023-06-22T01:13:39;23.50;99.90
2873;DHT22;1444;49.166;7.312;2023-06-22T01:16:12;23.50;99.90
2873;DHT22;1444;49.166;7.312;2023-06-22T01:18:42;23.40;99.90
2873;DHT22;1444;49.166;7.312;2023-06-22T01:21:14;23.40;99.90
2873;DHT22;1444;49.166;7.312;2023-06-22T01:23:51;23.40;99.90
2873;DHT22;1444;49.166;7.312;2023-06-22T01:26:28;23.40;99.90
2873;DHT22;1444;49.166;7.312;2023-06-22T01:29:02;23.40;99.90
2873;DHT22;1444;49.166;7.312;2023-06-22T01:31:31;23.40;99.90
2873;DHT22;1444;49.166;7.312;2023-06-22T01:34:03;23.40;99.90
2873;DHT22;1444;49.166;7.312;2023-06-22T01:36:31;23.40;99.90
2873;DHT22;1444;49.166;7.312;2023-06-22T01:38:59;23.40;99.90
2873;DHT22;1444;49.166;7.312;2023-06-22T01:41:28;23.20;99.90
2873;DHT22;1444;49.166;7.312;2023-06-22T01:43:56;23.00;99.90
2873;DHT22;1444;49.166;7.312;2023-06-22T01:46:24;23.00;99.90
2873;DHT22;1444;49.166;7.312;2023-06-22T01:48:51;23.00;99.90
2873;DHT22;1444;49.166;7.312;2023-06-22T01:51:19;23.10;99.90
2873;DHT22;1444;49.166;7.312;2023-06-22T01:53:46;23.10;99.90
2873;DHT22;1444;49.166;7.312;2023-06-22T01:56:15;23.10;99.90
2873;DHT22;1444;49.166;7.312;2023-06-22T01:58:49;23.10;99.90
2873;DHT22;1444;49.166;7.312;2023-06-22T02:01:26;23.10;99.90
2873;DHT22;1444;49.166;7.312;2023-06-22T02:04:01;23.10;99.90
2873;DHT22;1444;49.166;7.312;2023-06-22T02:06:34;23.10;99.90
2873;DHT22;1444;49.166;7.312;2023-06-22T02:09:12;23.00;99.90
2873;DHT22;1444;49.166;7.312;2023-06-22T02:11:42;23.00;99.90
2873;DHT22;1444;49.166;7.312;2023-06-22T02:14:10;23.00;99.90
2873;DHT22;1444;49.166;7.312;2023-06-22T02:16:37;23.00;99.90
2873;DHT22;1444;49.166;7.312;2023-06-22T02:19:06;23.00;99.90
2873;DHT22;1444;49.166;7.312;2023-06-22T02:21:34;22.90;99.90
2873;DHT22;1444;49.166;7.312;2023-06-22T02:24:01;22.90;99.90
2873;DHT22;1444;49.166;7.312;2023-06-22T02:26:28;22.90;99.90
2873;DHT22;1444;49.166;7.312;2023-06-22T02:28:54;22.90;99.90
2873;DHT22;1444;49.166;7.312;2023-06-22T02:31:21;22.90;99.90
2873;DHT22;1444;49.166;7.312;2023-06-22T02:33:48;22.80;99.90
2873;DHT22;1444;49.166;7.312;2023-06-22T02:36:16;22.70;99.90
2873;DHT22;1444;49.166;7.312;2023-06-22T02:38:49;22.70;99.90
2873;DHT22;1444;49.166;7.312;2023-06-22T02:41:16;22.60;99.90
2873;DHT22;1444;49.166;7.312;2023-06-22T02:43:44;22.50;99.90
2873;DHT22;1444;49.166;7.312;2023-06-22T02:46:12;22.50;99.90
2873;DHT22;1444;49.166;7.312;2023-06-22T02:48:39;22.50;99.90
2873;DHT22;1444;49.166;7.312;2023-06-22T02:51:06;22.10;99.90
2873;DHT22;1444;49.166;7.312;2023-06-22T02:53:34;22.60;99.90
2873;DHT22;1444;49.166;7.312;2023-06-22T02:56:02;22.60;99.90
2873;DHT22;1444;49.166;7.312;2023-06-22T02:58:30;22.60;99.90
2873;DHT22;1444;49.166;7.312;2023-06-22T03:00:58;22.60;99.90
2873;DHT22;1444;49.166;7.312;2023-06-22T03:03:29;22.50;99.90
2873;DHT22;1444;49.166;7.312;2023-06-22T03:05:56;22.50;99.90
2873;DHT22;1444;49.166;7.312;2023-06-22T03:08:23;22.50;99.90
2873;DHT22;1444;49.166;7.312;2023-06-22T03:10:51;22.40;99.90
2873;DHT22;1444;49.166;7.312;2023-06-22T03:13:18;22.40;99.90
2873;DHT22;1444;49.166;7.312;2023-06-22T03:15:44;22.40;99.90
2873;DHT22;1444;49.166;7.312;2023-06-22T03:18:11;22.30;99.90
2873;DHT22;1444;49.166;7.312;2023-06-22T03:20:38;22.20;99.90
2873;DHT22;1444;49.166;7.312;2023-06-22T03:23:05;22.20;99.90
2873;DHT22;1444;49.166;7.312;2023-06-22T03:25:32;22.20;99.90
2873;DHT22;1444;49.166;7.312;2023-06-22T03:28:00;22.10;99.90
2873;DHT22;1444;49.166;7.312;2023-06-22T03:30:27;22.00;99.90
2873;DHT22;1444;49.166;7.312;2023-06-22T03:32:53;22.10;99.90
2873;DHT22;1444;49.166;7.312;2023-06-22T03:35:20;22.10;99.90
2873;DHT22;1444;49.166;7.312;2023-06-22T03:37:47;22.10;99.90
2873;DHT22;1444;49.166;7.312;2023-06-22T03:40:13;22.10;99.90
2873;DHT22;1444;49.166;7.312;2023-06-22T03:42:40;22.10;99.90
2873;DHT22;1444;49.166;7.312;2023-06-22T03:45:09;22.10;99.90
2873;DHT22;1444;49.166;7.312;2023-06-22T03:47:36;22.10;99.90
2873;DHT22;1444;49.166;7.312;2023-06-22T03:50:03;22.10;99.90
2873;DHT22;1444;49.166;7.312;2023-06-22T03:52:31;22.10;99.90
2873;DHT22;1444;49.166;7.312;2023-06-22T03:54:58;22.10;99.90
2873;DHT22;1444;49.166;7.312;2023-06-22T03:57:24;22.00;99.90
2873;DHT22;1444;49.166;7.312;2023-06-22T03:59:51;22.10;99.90
2873;DHT22;1444;49.166;7.312;2023-06-22T04:02:19;22.00;99.90
2873;DHT22;1444;49.166;7.312;2023-06-22T04:04:46;22.00;99.90
2873;DHT22;1444;49.166;7.312;2023-06-22T04:07:12;22.00;99.90
2873;DHT22;1444;49.166;7.312;2023-06-22T04:09:39;22.00;99.90
2873;DHT22;1444;49.166;7.312;2023-06-22T04:12:07;22.00;99.90
2873;DHT22;1444;49.166;7.312;2023-06-22T04:14:33;22.00;99.90
2873;DHT22;1444;49.166;7.312;2023-06-22T04:17:00;22.00;99.90
2873;DHT22;1444;49.166;7.312;2023-06-22T04:19:29;22.00;99.90
2873;DHT22;1444;49.166;7.312;2023-06-22T04:21:55;22.10;99.90
2873;DHT22;1444;49.166;7.312;2023-06-22T04:24:22;22.10;99.90
2873;DHT22;1444;49.166;7.312;2023-06-22T04:26:49;22.00;99.90
2873;DHT22;1444;49.166;7.312;2023-06-22T04:29:20;22.10;99.90
2873;DHT22;1444;49.166;7.312;2023-06-22T04:31:54;22.00;99.90
2873;DHT22;1444;49.166;7.312;2023-06-22T04:34:23;22.00;99.90
2873;DHT22;1444;49.166;7.312;2023-06-22T04:36:53;22.10;99.90
2873;DHT22;1444;49.166;7.312;2023-06-22T04:39:20;22.10;99.90
2873;DHT22;1444;49.166;7.312;2023-06-22T04:41:47;22.10;99.90
2873;DHT22;1444;49.166;7.312;2023-06-22T04:44:15;22.20;99.90
2873;DHT22;1444;49.166;7.312;2023-06-22T04:46:49;22.20;99.90
2873;DHT22;1444;49.166;7.312;2023-06-22T04:49:20;22.30;99.90
2873;DHT22;1444;49.166;7.312;2023-06-22T04:51:47;22.30;99.90
2873;DHT22;1444;49.166;7.312;2023-06-22T04:54:15;22.40;99.90
2873;DHT22;1444;49.166;7.312;2023-06-22T04:56:42;22.40;99.90
2873;DHT22;1444;49.166;7.312;2023-06-22T04:59:12;22.50;99.90
2873;DHT22;1444;49.166;7.312;2023-06-22T05:01:39;22.50;99.90
2873;DHT22;1444;49.166;7.312;2023-06-22T05:04:06;22.60;99.90
2873;DHT22;1444;49.166;7.312;2023-06-22T05:06:33;22.70;99.90
2873;DHT22;1444;49.166;7.312;2023-06-22T05:09:00;22.80;99.90
2873;DHT22;1444;49.166;7.312;2023-06-22T05:11:28;22.80;99.90
2873;DHT22;1444;49.166;7.312;2023-06-22T05:13:55;22.90;99.90
2873;DHT22;1444;49.166;7.312;2023-06-22T05:16:22;23.00;99.90
2873;DHT22;1444;49.166;7.312;2023-06-22T05:18:54;23.10;99.90
2873;DHT22;1444;49.166;7.312;2023-06-22T05:21:26;23.10;99.90
2873;DHT22;1444;49.166;7.312;2023-06-22T05:23:53;23.20;99.90
2873;DHT22;1444;49.166;7.312;2023-06-22T05:26:26;23.30;99.90
2873;DHT22;1444;49.166;7.312;2023-06-22T05:28:54;23.30;99.90
2873;DHT22;1444;49.166;7.312;2023-06-22T05:31:21;23.30;99.90
2873;DHT22;1444;49.166;7.312;2023-06-22T05:33:48;23.40;99.90
2873;DHT22;1444;49.166;7.312;2023-06-22T05:36:15;23.40;99.90
2873;DHT22;1444;49.166;7.312;2023-06-22T05:38:42;23.40;99.90
2873;DHT22;1444;49.166;7.312;2023-06-22T05:41:09;23.50;99.90
2873;DHT22;1444;49.166;7.312;2023-06-22T05:43:35;23.50;99.90
2873;DHT22;1444;49.166;7.312;2023-06-22T05:46:04;23.50;99.90
2873;DHT22;1444;49.166;7.312;2023-06-22T05:48:31;23.60;99.90
2873;DHT22;1444;49.166;7.312;2023-06-22T05:50:58;23.60;99.90
2873;DHT22;1444;49.166;7.312;2023-06-22T05:53:25;23.70;99.90
2873;DHT22;1444;49.166;7.312;2023-06-22T05:55:52;23.80;99.90
2873;DHT22;1444;49.166;7.312;2023-06-22T05:58:19;23.80;99.90
2873;DHT22;1444;49.166;7.312;2023-06-22T06:00:45;23.90;99.90
2873;DHT22;1444;49.166;7.312;2023-06-22T06:03:14;24.00;99.90
2873;DHT22;1444;49.166;7.312;2023-06-22T06:05:43;24.00;99.90
2873;DHT22;1444;49.166;7.312;2023-06-22T06:08:10;24.10;99.90
2873;DHT22;1444;49.166;7.312;2023-06-22T06:10:37;24.10;99.90
2873;DHT22;1444;49.166;7.312;2023-06-22T06:13:04;24.20;99.90
2873;DHT22;1444;49.166;7.312;2023-06-22T06:15:31;24.30;99.90
2873;DHT22;1444;49.166;7.312;2023-06-22T06:17:59;24.30;99.90
2873;DHT22;1444;49.166;7.312;2023-06-22T06:20:27;24.30;99.90
2873;DHT22;1444;49.166;7.312;2023-06-22T06:22:54;24.30;99.90
2873;DHT22;1444;49.166;7.312;2023-06-22T06:25:21;24.30;99.90
2873;DHT22;1444;49.166;7.312;2023-06-22T06:27:49;24.30;99.90
2873;DHT22;1444;49.166;7.312;2023-06-22T06:30:17;24.40;99.90
2873;DHT22;1444;49.166;7.312;2023-06-22T06:32:44;24.50;99.90
2873;DHT22;1444;49.166;7.312;2023-06-22T06:35:14;24.50;99.90
2873;DHT22;1444;49.166;7.312;2023-06-22T06:37:43;24.60;99.90
2873;DHT22;1444;49.166;7.312;2023-06-22T06:40:12;24.60;99.90
2873;DHT22;1444;49.166;7.312;2023-06-22T06:42:39;24.80;99.90
2873;DHT22;1444;49.166;7.312;2023-06-22T06:45:08;24.90;99.90
2873;DHT22;1444;49.166;7.312;2023-06-22T06:47:34;25.00;99.90
2873;DHT22;1444;49.166;7.312;2023-06-22T06:50:02;25.10;99.90
2873;DHT22;1444;49.166;7.312;2023-06-22T06:52:28;25.10;99.90
2873;DHT22;1444;49.166;7.312;2023-06-22T06:54:56;25.20;99.90
2873;DHT22;1444;49.166;7.312;2023-06-22T06:57:23;25.40;99.90
2873;DHT22;1444;49.166;7.312;2023-06-22T06:59:51;25.50;99.90
2873;DHT22;1444;49.166;7.312;2023-06-22T07:02:18;25.60;99.90
2873;DHT22;1444;49.166;7.312;2023-06-22T07:04:46;25.70;99.90
2873;DHT22;1444;49.166;7.312;2023-06-22T07:07:12;25.80;99.90
2873;DHT22;1444;49.166;7.312;2023-06-22T07:09:39;25.80;99.90
2873;DHT22;1444;49.166;7.312;2023-06-22T07:12:08;25.80;99.90
2873;DHT22;1444;49.166;7.312;2023-06-22T07:14:35;25.90;99.90
2873;DHT22;1444;49.166;7.312;2023-06-22T07:17:02;26.00;99.90
2873;DHT22;1444;49.166;7.312;2023-06-22T07:19:33;26.10;99.90
2873;DHT22;1444;49.166;7.312;2023-06-22T07:21:59;26.30;99.90
2873;DHT22;1444;49.166;7.312;2023-06-22T07:24:26;26.40;99.90
2873;DHT22;1444;49.166;7.312;2023-06-22T07:26:53;26.70;99.90
2873;DHT22;1444;49.166;7.312;2023-06-22T07:29:21;26.80;99.90
2873;DHT22;1444;49.166;7.312;2023-06-22T07:31:50;26.90;99.90
2873;DHT22;1444;49.166;7.312;2023-06-22T07:34:17;27.00;99.90
2873;DHT22;1444;49.166;7.312;2023-06-22T07:36:45;27.10;99.90
2873;DHT22;1444;49.166;7.312;2023-06-22T07:39:12;27.30;99.90
2873;DHT22;1444;49.166;7.312;2023-06-22T07:41:40;27.30;99.90
2873;DHT22;1444;49.166;7.312;2023-06-22T07:44:07;27.30;99.90
2873;DHT22;1444;49.166;7.312;2023-06-22T07:46:35;27.40;99.90
2873;DHT22;1444;49.166;7.312;2023-06-22T07:49:02;27.40;99.90
2873;DHT22;1444;49.166;7.312;2023-06-22T07:51:29;27.40;99.20
2873;DHT22;1444;49.166;7.312;2023-06-22T07:53:55;27.40;99.60
2873;DHT22;1444;49.166;7.312;2023-06-22T07:56:22;27.50;99.70
2873;DHT22;1444;49.166;7.312;2023-06-22T07:58:49;27.50;99.00
2873;DHT22;1444;49.166;7.312;2023-06-22T08:01:16;27.60;99.10
2873;DHT22;1444;49.166;7.312;2023-06-22T08:03:47;27.80;98.40
2873;DHT22;1444;49.166;7.312;2023-06-22T08:06:13;27.70;98.40
2873;DHT22;1444;49.166;7.312;2023-06-22T08:08:40;27.70;98.30
2873;DHT22;1444;49.166;7.312;2023-06-22T08:11:08;27.60;97.40
2873;DHT22;1444;49.166;7.312;2023-06-22T08:13:34;27.50;98.30
2873;DHT22;1444;49.166;7.312;2023-06-22T08:16:01;27.40;97.60
2873;DHT22;1444;49.166;7.312;2023-06-22T08:18:28;27.40;98.00
2873;DHT22;1444;49.166;7.312;2023-06-22T08:20:56;27.30;98.20
2873;DHT22;1444;49.166;7.312;2023-06-22T08:23:23;27.40;98.60
2873;DHT22;1444;49.166;7.312;2023-06-22T08:25:49;27.40;98.00
2873;DHT22;1444;49.166;7.312;2023-06-22T08:28:16;27.30;97.80
2873;DHT22;1444;49.166;7.312;2023-06-22T08:30:43;27.40;97.70
2873;DHT22;1444;49.166;7.312;2023-06-22T08:33:10;27.40;98.10
2873;DHT22;1444;49.166;7.312;2023-06-22T08:35:36;27.50;98.00
2873;DHT22;1444;49.166;7.312;2023-06-22T08:38:05;27.60;97.50
2873;DHT22;1444;49.166;7.312;2023-06-22T08:40:31;27.60;97.70
2873;DHT22;1444;49.166;7.312;2023-06-22T08:42:58;27.80;98.10
2873;DHT22;1444;49.166;7.312;2023-06-22T08:45:25;27.90;97.60
2873;DHT22;1444;49.166;7.312;2023-06-22T08:47:52;28.00;98.10
2873;DHT22;1444;49.166;7.312;2023-06-22T08:50:18;28.30;98.10
2873;DHT22;1444;49.166;7.312;2023-06-22T08:52:45;28.60;97.40
2873;DHT22;1444;49.166;7.312;2023-06-22T08:55:14;28.90;97.20
2873;DHT22;1444;49.166;7.312;2023-06-22T08:57:41;29.20;97.10
2873;DHT22;1444;49.166;7.312;2023-06-22T09:00:10;29.30;96.00
2873;DHT22;1444;49.166;7.312;2023-06-22T09:02:45;29.20;94.60
2873;DHT22;1444;49.166;7.312;2023-06-22T09:05:11;29.30;96.00
2873;DHT22;1444;49.166;7.312;2023-06-22T09:07:38;29.40;95.20
2873;DHT22;1444;49.166;7.312;2023-06-22T09:10:06;29.50;95.00
2873;DHT22;1444;49.166;7.312;2023-06-22T09:12:34;29.80;96.00
2873;DHT22;1444;49.166;7.312;2023-06-22T09:15:03;29.80;94.40
2873;DHT22;1444;49.166;7.312;2023-06-22T09:17:32;29.60;93.10
2873;DHT22;1444;49.166;7.312;2023-06-22T09:19:59;29.70;93.70
2873;DHT22;1444;49.166;7.312;2023-06-22T09:22:27;29.60;94.50
2873;DHT22;1444;49.166;7.312;2023-06-22T09:24:54;29.40;94.70
2873;DHT22;1444;49.166;7.312;2023-06-22T09:27:21;29.50;94.70
2873;DHT22;1444;49.166;7.312;2023-06-22T09:29:50;29.80;94.90
2873;DHT22;1444;49.166;7.312;2023-06-22T09:32:16;30.10;95.80
2873;DHT22;1444;49.166;7.312;2023-06-22T09:34:43;29.80;93.10
2873;DHT22;1444;49.166;7.312;2023-06-22T09:37:10;30.10;93.40
2873;DHT22;1444;49.166;7.312;2023-06-22T09:39:36;30.50;94.60
2873;DHT22;1444;49.166;7.312;2023-06-22T09:42:04;30.60;93.00
2873;DHT22;1444;49.166;7.312;2023-06-22T09:44:31;30.60;93.30
2873;DHT22;1444;49.166;7.312;2023-06-22T09:47:00;30.60;92.80
2873;DHT22;1444;49.166;7.312;2023-06-22T09:49:27;30.80;94.40
2873;DHT22;1444;49.166;7.312;2023-06-22T09:51:53;31.00;94.40
2873;DHT22;1444;49.166;7.312;2023-06-22T09:54:20;31.20;92.90
2873;DHT22;1444;49.166;7.312;2023-06-22T09:56:47;31.30;91.70
2873;DHT22;1444;49.166;7.312;2023-06-22T09:59:13;31.30;91.60
2873;DHT22;1444;49.166;7.312;2023-06-22T10:01:40;31.40;91.80
2873;DHT22;1444;49.166;7.312;2023-06-22T10:04:08;31.60;92.70
2873;DHT22;1444;49.166;7.312;2023-06-22T10:06:35;31.70;91.10
2873;DHT22;1444;49.166;7.312;2023-06-22T10:09:01;32.00;91.40
2873;DHT22;1444;49.166;7.312;2023-06-22T10:11:28;31.70;90.20
2873;DHT22;1444;49.166;7.312;2023-06-22T10:13:56;32.00;90.50
2873;DHT22;1444;49.166;7.312;2023-06-22T10:16:24;31.70;88.90
2873;DHT22;1444;49.166;7.312;2023-06-22T10:18:52;31.40;90.60
2873;DHT22;1444;49.166;7.312;2023-06-22T10:21:20;31.30;90.50
2873;DHT22;1444;49.166;7.312;2023-06-22T10:23:47;31.20;90.60
2873;DHT22;1444;49.166;7.312;2023-06-22T10:26:13;31.10;91.20
2873;DHT22;1444;49.166;7.312;2023-06-22T10:28:40;31.10;90.70
2873;DHT22;1444;49.166;7.312;2023-06-22T10:31:07;31.10;90.80
2873;DHT22;1444;49.166;7.312;2023-06-22T10:33:34;31.40;91.60
2873;DHT22;1444;49.166;7.312;2023-06-22T10:36:00;31.70;92.20
2873;DHT22;1444;49.166;7.312;2023-06-22T10:38:28;31.90;88.40
2873;DHT22;1444;49.166;7.312;2023-06-22T10:40:55;31.70;89.20
2873;DHT22;1444;49.166;7.312;2023-06-22T10:43:22;31.70;88.70
2873;DHT22;1444;49.166;7.312;2023-06-22T10:45:48;32.00;90.50
2873;DHT22;1444;49.166;7.312;2023-06-22T10:48:15;31.80;87.90
2873;DHT22;1444;49.166;7.312;2023-06-22T10:50:42;31.40;87.40
2873;DHT22;1444;49.166;7.312;2023-06-22T10:53:08;31.70;89.80
2873;DHT22;1444;49.166;7.312;2023-06-22T10:55:36;31.80;90.50
2873;DHT22;1444;49.166;7.312;2023-06-22T10:58:03;31.90;90.00
2873;DHT22;1444;49.166;7.312;2023-06-22T11:00:30;32.00;90.30
2873;DHT22;1444;49.166;7.312;2023-06-22T11:02:56;31.80;87.40
2873;DHT22;1444;49.166;7.312;2023-06-22T11:05:24;31.80;86.80
2873;DHT22;1444;49.166;7.312;2023-06-22T11:07:50;31.50;87.00
2873;DHT22;1444;49.166;7.312;2023-06-22T11:10:17;32.00;89.00
2873;DHT22;1444;49.166;7.312;2023-06-22T11:12:46;31.40;89.00
2873;DHT22;1444;49.166;7.312;2023-06-22T11:15:13;31.40;89.50
2873;DHT22;1444;49.166;7.312;2023-06-22T11:17:40;31.30;89.40
2873;DHT22;1444;49.166;7.312;2023-06-22T11:20:07;31.30;90.00
2873;DHT22;1444;49.166;7.312;2023-06-22T11:22:37;31.10;89.00
2873;DHT22;1444;49.166;7.312;2023-06-22T11:25:05;31.10;90.20
2873;DHT22;1444;49.166;7.312;2023-06-22T11:30:01;31.10;89.30
2873;DHT22;1444;49.166;7.312;2023-06-22T11:32:28;31.10;89.50
2873;DHT22;1444;49.166;7.312;2023-06-22T11:34:54;31.10;89.60
2873;DHT22;1444;49.166;7.312;2023-06-22T11:37:21;31.00;90.20
2873;DHT22;1444;49.166;7.312;2023-06-22T11:39:48;31.00;90.30
2873;DHT22;1444;49.166;7.312;2023-06-22T11:44:42;30.80;91.20
2873;DHT22;1444;49.166;7.312;2023-06-22T11:47:10;30.60;91.50
2873;DHT22;1444;49.166;7.312;2023-06-22T11:49:37;30.60;91.50
2873;DHT22;1444;49.166;7.312;2023-06-22T11:52:04;30.60;91.00
2873;DHT22;1444;49.166;7.312;2023-06-22T11:54:31;30.50;91.20
2873;DHT22;1444;49.166;7.312;2023-06-22T11:56:58;30.70;92.70
2873;DHT22;1444;49.166;7.312;2023-06-22T11:59:24;30.60;91.40
2873;DHT22;1444;49.166;7.312;2023-06-22T12:01:51;30.60;91.50
2873;DHT22;1444;49.166;7.312;2023-06-22T12:04:19;31.00;92.30
2873;DHT22;1444;49.166;7.312;2023-06-22T12:06:46;31.00;91.40
2873;DHT22;1444;49.166;7.312;2023-06-22T12:09:13;31.30;92.80
2873;DHT22;1444;49.166;7.312;2023-06-22T12:11:40;31.20;91.10
2873;DHT22;1444;49.166;7.312;2023-06-22T12:14:07;30.90;90.90
2873;DHT22;1444;49.166;7.312;2023-06-22T12:16:33;30.90;91.30
2873;DHT22;1444;49.166;7.312;2023-06-22T12:19:00;31.10;91.70
2873;DHT22;1444;49.166;7.312;2023-06-22T12:21:28;31.10;91.90
2873;DHT22;1444;49.166;7.312;2023-06-22T12:23:55;31.10;91.80
2873;DHT22;1444;49.166;7.312;2023-06-22T12:26:22;31.30;91.80
2873;DHT22;1444;49.166;7.312;2023-06-22T12:28:49;31.30;89.60
2873;DHT22;1444;49.166;7.312;2023-06-22T12:31:15;31.40;88.20
2873;DHT22;1444;49.166;7.312;2023-06-22T12:36:09;31.30;90.10
2873;DHT22;1444;49.166;7.312;2023-06-22T12:38:37;31.20;90.40
2873;DHT22;1444;49.166;7.312;2023-06-22T12:41:04;31.20;89.00
2873;DHT22;1444;49.166;7.312;2023-06-22T12:43:30;31.10;89.50
2873;DHT22;1444;49.166;7.312;2023-06-22T12:45:57;31.00;88.90
2873;DHT22;1444;49.166;7.312;2023-06-22T12:48:26;30.70;87.10
2873;DHT22;1444;49.166;7.312;2023-06-22T12:50:53;30.70;89.00
2873;DHT22;1444;49.166;7.312;2023-06-22T12:53:20;30.80;89.30
2873;DHT22;1444;49.166;7.312;2023-06-22T12:55:49;31.20;89.00
2873;DHT22;1444;49.166;7.312;2023-06-22T12:58:16;31.40;90.00
2873;DHT22;1444;49.166;7.312;2023-06-22T13:00:43;31.70;90.30
2873;DHT22;1444;49.166;7.312;2023-06-22T13:03:10;31.90;88.50
2873;DHT22;1444;49.166;7.312;2023-06-22T13:05:36;31.90;81.90
2873;DHT22;1444;49.166;7.312;2023-06-22T13:08:03;32.00;82.70
2873;DHT22;1444;49.166;7.312;2023-06-22T13:10:30;32.00;81.00
2873;DHT22;1444;49.166;7.312;2023-06-22T13:12:58;31.70;77.70
2873;DHT22;1444;49.166;7.312;2023-06-22T13:15:26;31.60;80.30
2873;DHT22;1444;49.166;7.312;2023-06-22T13:17:53;31.40;79.40
2873;DHT22;1444;49.166;7.312;2023-06-22T13:20:20;31.30;79.70
2873;DHT22;1444;49.166;7.312;2023-06-22T13:22:47;31.40;80.40
2873;DHT22;1444;49.166;7.312;2023-06-22T13:25:14;31.20;80.90
2873;DHT22;1444;49.166;7.312;2023-06-22T13:27:44;30.70;80.00
2873;DHT22;1444;49.166;7.312;2023-06-22T13:30:13;30.70;80.10
2873;DHT22;1444;49.166;7.312;2023-06-22T13:32:40;30.80;82.40
2873;DHT22;1444;49.166;7.312;2023-06-22T13:35:08;31.00;80.90
2873;DHT22;1444;49.166;7.312;2023-06-22T13:37:35;31.10;81.80
2873;DHT22;1444;49.166;7.312;2023-06-22T13:40:02;31.40;81.80
2873;DHT22;1444;49.166;7.312;2023-06-22T13:42:30;31.40;79.80
2873;DHT22;1444;49.166;7.312;2023-06-22T13:44:57;31.40;79.70
2873;DHT22;1444;49.166;7.312;2023-06-22T13:47:25;31.50;79.50
2873;DHT22;1444;49.166;7.312;2023-06-22T13:49:52;31.60;80.20
2873;DHT22;1444;49.166;7.312;2023-06-22T13:52:19;31.60;78.90
2873;DHT22;1444;49.166;7.312;2023-06-22T13:54:45;31.80;77.30
2873;DHT22;1444;49.166;7.312;2023-06-22T13:57:12;31.70;75.60
2873;DHT22;1444;49.166;7.312;2023-06-22T13:59:39;31.60;76.60
2873;DHT22;1444;49.166;7.312;2023-06-22T14:02:06;31.00;76.30
2873;DHT22;1444;49.166;7.312;2023-06-22T14:04:34;30.90;77.40
2873;DHT22;1444;49.166;7.312;2023-06-22T14:07:01;30.90;79.10
2873;DHT22;1444;49.166;7.312;2023-06-22T14:09:27;30.60;79.00
2873;DHT22;1444;49.166;7.312;2023-06-22T14:11:54;30.60;79.80
2873;DHT22;1444;49.166;7.312;2023-06-22T14:14:22;30.70;80.00
2873;DHT22;1444;49.166;7.312;2023-06-22T14:16:48;31.00;81.50
2873;DHT22;1444;49.166;7.312;2023-06-22T14:19:17;31.10;80.40
2873;DHT22;1444;49.166;7.312;2023-06-22T14:21:45;31.20;81.30
2873;DHT22;1444;49.166;7.312;2023-06-22T14:24:12;31.40;81.30
2873;DHT22;1444;49.166;7.312;2023-06-22T14:26:39;31.40;79.70
2873;DHT22;1444;49.166;7.312;2023-06-22T14:29:05;31.30;78.80
2873;DHT22;1444;49.166;7.312;2023-06-22T14:31:32;31.20;77.90
2873;DHT22;1444;49.166;7.312;2023-06-22T14:33:59;31.30;75.20
2873;DHT22;1444;49.166;7.312;2023-06-22T14:36:27;31.40;74.60
2873;DHT22;1444;49.166;7.312;2023-06-22T14:38:55;31.00;68.70
2873;DHT22;1444;49.166;7.312;2023-06-22T14:41:22;31.10;70.30
2873;DHT22;1444;49.166;7.312;2023-06-22T14:43:50;31.20;74.00
2873;DHT22;1444;49.166;7.312;2023-06-22T14:46:18;31.10;73.70
2873;DHT22;1444;49.166;7.312;2023-06-22T14:48:45;30.90;73.30
2873;DHT22;1444;49.166;7.312;2023-06-22T14:51:12;31.10;73.90
2873;DHT22;1444;49.166;7.312;2023-06-22T14:53:39;31.10;74.00
2873;DHT22;1444;49.166;7.312;2023-06-22T14:56:07;31.00;75.30
2873;DHT22;1444;49.166;7.312;2023-06-22T14:58:34;31.00;73.10
2873;DHT22;1444;49.166;7.312;2023-06-22T15:01:01;30.90;70.80
2873;DHT22;1444;49.166;7.312;2023-06-22T15:03:30;31.00;72.90
2873;DHT22;1444;49.166;7.312;2023-06-22T15:05:57;30.90;72.20
2873;DHT22;1444;49.166;7.312;2023-06-22T15:08:25;30.90;71.20
2873;DHT22;1444;49.166;7.312;2023-06-22T15:10:52;30.70;71.00
2873;DHT22;1444;49.166;7.312;2023-06-22T15:13:20;30.70;71.30
2873;DHT22;1444;49.166;7.312;2023-06-22T15:15:47;30.70;72.20
2873;DHT22;1444;49.166;7.312;2023-06-22T15:18:14;30.90;72.40
2873;DHT22;1444;49.166;7.312;2023-06-22T15:20:42;31.00;71.80
2873;DHT22;1444;49.166;7.312;2023-06-22T15:23:10;30.80;70.80
2873;DHT22;1444;49.166;7.312;2023-06-22T15:25:37;30.70;71.80
2873;DHT22;1444;49.166;7.312;2023-06-22T15:28:04;30.90;72.40
2873;DHT22;1444;49.166;7.312;2023-06-22T15:30:32;30.90;71.70
2873;DHT22;1444;49.166;7.312;2023-06-22T15:32:59;31.10;72.20
2873;DHT22;1444;49.166;7.312;2023-06-22T15:35:26;30.70;71.20
2873;DHT22;1444;49.166;7.312;2023-06-22T15:37:53;30.70;72.20
2873;DHT22;1444;49.166;7.312;2023-06-22T15:40:20;30.50;72.50
2873;DHT22;1444;49.166;7.312;2023-06-22T15:42:49;30.50;73.10
2873;DHT22;1444;49.166;7.312;2023-06-22T15:45:16;30.30;73.10
2873;DHT22;1444;49.166;7.312;2023-06-22T15:47:44;30.10;73.10
2873;DHT22;1444;49.166;7.312;2023-06-22T15:50:12;30.10;73.60
2873;DHT22;1444;49.166;7.312;2023-06-22T15:52:39;30.00;73.30
2873;DHT22;1444;49.166;7.312;2023-06-22T15:55:08;30.30;73.40
2873;DHT22;1444;49.166;7.312;2023-06-22T15:57:36;30.30;73.40
2873;DHT22;1444;49.166;7.312;2023-06-22T16:00:04;30.40;73.60
2873;DHT22;1444;49.166;7.312;2023-06-22T16:02:33;30.40;73.30
2873;DHT22;1444;49.166;7.312;2023-06-22T16:05:01;30.40;74.10
2873;DHT22;1444;49.166;7.312;2023-06-22T16:07:29;30.30;74.90
2873;DHT22;1444;49.166;7.312;2023-06-22T16:09:55;30.20;75.60
2873;DHT22;1444;49.166;7.312;2023-06-22T16:12:22;29.90;75.80